Time;durP1;ratioP1;P1;durP2;ratioP2;P2;SDS_P1;SDS_P2;PMS_P1;PMS_P2;Temp;Humidity;BMP_temperature;BMP_pressure;BME280_temperature;BME280_humidity;BME280_pressure;Samples;Min_cycle;Max_cycle;Signal;HPM_P1;HPM_P2
2021/10/09 00:00:31;;;;;;;5.40;2.83;;;18.50;57.30;;;;;;5115752;28;20062;-58
2021/10/09 00:02:57;;;;;;;5.13;2.97;;;18.50;57.30;;;;;;5097478;28;20116;-60
2021/10/09 00:05:22;;;;;;;6.13;3.08;;;18.50;57.30;;;;;;5115631;28;20027;-59
2021/10/09 00:07:48;;;;;;;5.72;3.10;;;18.50;57.30;;;;;;5115661;28;20035;-60
2021/10/09 00:10:24;;;;;;;6.18;3.58;;;18.40;57.30;;;;;;5097339;28;20020;-59
2021/10/09 00:12:49;;;;;;;5.82;3.22;;;18.50;57.40;;;;;;5115513;28;20038;-57
2021/10/09 00:15:15;;;;;;;5.88;3.13;;;18.40;57.40;;;;;;5115484;28;20028;-59
2021/10/09 00:17:40;;;;;;;6.05;3.22;;;18.40;57.40;;;;;;5115679;28;20020;-58
2021/10/09 00:20:06;;;;;;;5.63;3.33;;;18.40;57.40;;;;;;5115386;28;20032;-59
2021/10/09 00:22:32;;;;;;;4.72;2.80;;;18.40;57.40;;;;;;5115288;28;20027;-59
2021/10/09 00:24:57;;;;;;;5.85;3.33;;;18.40;57.40;;;;;;5115272;28;20467;-58
2021/10/09 00:27:23;;;;;;;6.13;3.30;;;18.40;57.40;;;;;;5115307;28;20094;-58
2021/10/09 00:29:48;;;;;;;7.90;3.17;;;18.40;57.40;;;;;;5115154;28;20387;-57
2021/10/09 00:32:14;;;;;;;7.38;4.13;;;18.40;57.40;;;;;;5115342;28;20100;-56
2021/10/09 00:34:39;;;;;;;6.32;3.75;;;18.40;57.40;;;;;;5115060;28;20042;-58
2021/10/09 00:37:05;;;;;;;7.28;3.78;;;18.40;57.40;;;;;;5115308;28;20432;-58
2021/10/09 00:39:30;;;;;;;6.15;3.67;;;18.40;57.40;;;;;;5096643;28;20046;-57
2021/10/09 00:41:56;;;;;;;6.40;3.40;;;18.40;57.40;;;;;;5114898;28;20035;-59
2021/10/09 00:44:22;;;;;;;6.40;3.65;;;18.40;57.40;;;;;;5114831;28;20065;-58
2021/10/09 00:46:47;;;;;;;5.93;3.03;;;18.40;57.40;;;;;;5096065;28;20027;-57
2021/10/09 00:49:16;;;;;;;5.78;3.15;;;18.40;57.40;;;;;;5114765;28;20024;-59
2021/10/09 00:51:47;;;;;;;6.97;3.15;;;18.40;57.30;;;;;;5114783;28;20090;-60
2021/10/09 00:54:14;;;;;;;7.30;3.30;;;18.40;57.40;;;;;;5114641;28;20501;-60
2021/10/09 00:56:43;;;;;;;5.68;2.97;;;18.40;57.40;;;;;;5114722;28;20148;-57
2021/10/09 00:59:13;;;;;;;8.98;3.80;;;18.40;57.40;;;;;;5114608;28;20505;-57
2021/10/09 01:01:41;;;;;;;6.30;3.42;;;18.40;57.40;;;;;;5114450;28;20505;-58
2021/10/09 01:04:08;;;;;;;6.53;3.65;;;18.40;57.40;;;;;;5114443;28;20015;-59
2021/10/09 01:06:34;;;;;;;7.50;3.30;;;18.40;57.40;;;;;;5114408;28;20364;-58
2021/10/09 01:09:00;;;;;;;5.78;3.15;;;18.40;57.40;;;;;;5114718;28;20077;-57
2021/10/09 01:11:26;;;;;;;5.70;3.60;;;18.40;57.40;;;;;;5114170;28;20470;-58
2021/10/09 01:13:51;;;;;;;7.35;3.50;;;18.40;57.40;;;;;;5114296;28;20114;-58
2021/10/09 01:16:25;;;;;;;6.55;3.53;;;18.30;57.40;;;;;;5114290;28;20029;-59
2021/10/09 01:18:52;;;;;;;6.20;3.65;;;18.30;57.50;;;;;;5114216;28;20042;-57
2021/10/09 01:21:19;;;;;;;6.50;3.83;;;18.30;57.50;;;;;;5114155;28;20024;-59
2021/10/09 01:23:46;;;;;;;6.30;3.50;;;18.30;57.50;;;;;;5095673;28;20471;-60
2021/10/09 01:26:11;;;;;;;7.30;4.00;;;18.30;57.50;;;;;;5114395;28;20111;-55
2021/10/09 01:28:39;;;;;;;6.15;3.78;;;18.30;57.50;;;;;;5095801;28;20451;-58
2021/10/09 01:31:05;;;;;;;6.63;3.67;;;18.30;57.50;;;;;;5095759;28;20023;-59
2021/10/09 01:33:31;;;;;;;7.10;3.60;;;18.30;57.50;;;;;;5113901;28;20382;-56
2021/10/09 01:35:57;;;;;;;5.88;3.30;;;18.30;57.60;;;;;;5114245;28;20502;-57
2021/10/09 01:38:26;;;;;;;6.38;3.88;;;18.30;57.50;;;;;;5113877;28;20356;-57
2021/10/09 01:40:52;;;;;;;6.97;4.07;;;18.30;57.50;;;;;;5113626;28;20044;-57
2021/10/09 01:43:20;;;;;;;7.97;3.58;;;18.30;57.50;;;;;;5113764;28;20493;-57
2021/10/09 01:45:46;;;;;;;6.80;3.92;;;18.30;57.50;;;;;;5095602;28;20383;-57
2021/10/09 01:48:14;;;;;;;6.25;4.13;;;18.30;57.60;;;;;;5095453;28;20420;-59
2021/10/09 01:50:40;;;;;;;7.20;4.13;;;18.30;57.60;;;;;;5113756;28;20034;-57
2021/10/09 01:53:07;;;;;;;7.55;3.92;;;18.30;57.50;;;;;;5113566;28;20032;-56
2021/10/09 01:55:37;;;;;;;6.65;3.65;;;18.30;57.50;;;;;;5113605;28;20031;-57
2021/10/09 01:58:04;;;;;;;6.78;3.90;;;18.20;57.60;;;;;;5113199;28;20110;-59
2021/10/09 02:00:30;;;;;;;6.43;3.75;;;18.20;57.60;;;;;;5113369;28;20035;-57
2021/10/09 02:03:01;;;;;;;6.97;4.10;;;18.20;57.60;;;;;;5113839;28;20059;-57
2021/10/09 02:05:27;;;;;;;7.15;3.78;;;18.20;57.60;;;;;;5113520;28;20379;-56
2021/10/09 02:07:53;;;;;;;6.38;3.47;;;18.20;57.60;;;;;;5113730;28;20023;-58
2021/10/09 02:10:19;;;;;;;6.32;3.40;;;18.20;57.60;;;;;;5113780;28;20099;-58
2021/10/09 02:12:44;;;;;;;7.35;3.97;;;18.20;57.50;;;;;;5113319;28;20104;-58
2021/10/09 02:18:03;;;;;;;7.40;4.00;;;18.20;57.60;;;;;;5113679;28;20047;-58
2021/10/09 02:25:57;;;;;;;6.80;3.95;;;18.20;57.60;;;;;;5113690;28;20038;-58
2021/10/09 02:28:23;;;;;;;6.97;4.13;;;18.20;57.60;;;;;;5113235;28;20019;-58
2021/10/09 02:30:51;;;;;;;7.25;3.80;;;18.20;57.70;;;;;;5113273;28;20027;-56
2021/10/09 02:33:17;;;;;;;6.18;3.65;;;18.20;57.70;;;;;;5113143;28;20498;-59
2021/10/09 02:35:43;;;;;;;7.07;3.95;;;18.20;57.60;;;;;;5113319;28;20019;-59
2021/10/09 02:38:09;;;;;;;7.47;4.47;;;18.20;57.60;;;;;;5113215;28;20078;-59
2021/10/09 02:40:39;;;;;;;6.95;4.13;;;18.20;57.60;;;;;;5113027;28;20051;-59
2021/10/09 02:43:04;;;;;;;7.03;3.85;;;18.20;57.60;;;;;;5113621;28;20095;-59
2021/10/09 02:45:30;;;;;;;5.95;3.55;;;18.20;57.60;;;;;;5113166;28;20158;-58
2021/10/09 02:47:57;;;;;;;6.85;3.90;;;18.20;57.60;;;;;;5113084;28;20024;-58
2021/10/09 02:50:22;;;;;;;7.55;3.88;;;18.20;57.50;;;;;;5113091;28;20023;-59
2021/10/09 02:52:48;;;;;;;7.22;4.05;;;18.20;57.50;;;;;;5113048;28;20062;-58
2021/10/09 02:55:17;;;;;;;6.60;3.88;;;18.20;57.50;;;;;;5113022;28;20455;-59
2021/10/09 02:57:43;;;;;;;7.50;4.47;;;18.20;57.50;;;;;;5112900;28;20039;-58
2021/10/09 03:00:10;;;;;;;6.63;4.20;;;18.20;57.40;;;;;;5113100;28;20024;-59
2021/10/09 03:02:35;;;;;;;6.63;3.45;;;18.20;57.40;;;;;;5112955;28;20032;-58
2021/10/09 03:05:02;;;;;;;7.93;3.50;;;18.20;57.40;;;;;;5112918;28;20042;-58
2021/10/09 03:07:28;;;;;;;7.03;4.05;;;18.20;57.40;;;;;;5113175;28;20447;-59
2021/10/09 03:09:54;;;;;;;6.93;3.95;;;18.20;57.50;;;;;;5114137;28;20062;-58
2021/10/09 03:12:19;;;;;;;7.38;4.22;;;18.20;57.50;;;;;;5116649;28;20050;-60
2021/10/09 03:14:45;;;;;;;7.32;4.53;;;18.20;57.40;;;;;;5116680;28;20051;-59
2021/10/09 03:17:10;;;;;;;7.55;4.13;;;18.20;57.40;;;;;;5116680;28;20059;-59
2021/10/09 03:19:36;;;;;;;5.95;3.38;;;18.20;57.40;;;;;;5116950;28;20020;-58
2021/10/09 03:22:01;;;;;;;6.60;3.80;;;18.20;57.50;;;;;;5116524;28;20032;-56
2021/10/09 03:24:27;;;;;;;6.80;4.05;;;18.20;57.50;;;;;;5116568;28;20363;-58
2021/10/09 03:26:53;;;;;;;7.70;4.40;;;18.10;57.50;;;;;;5098260;28;20050;-58
2021/10/09 03:29:18;;;;;;;7.45;3.80;;;18.10;57.50;;;;;;5116758;28;20152;-58
2021/10/09 03:31:44;;;;;;;7.60;4.45;;;18.10;57.60;;;;;;5116583;28;20027;-59
2021/10/09 03:34:09;;;;;;;6.72;3.97;;;18.10;57.50;;;;;;5116408;28;20031;-59
2021/10/09 03:36:35;;;;;;;7.93;4.38;;;18.10;57.40;;;;;;5116318;28;20027;-60
2021/10/09 03:39:02;;;;;;;7.25;4.20;;;18.10;57.50;;;;;;5097761;28;20039;-59
2021/10/09 03:41:28;;;;;;;7.07;4.20;;;18.10;57.50;;;;;;5116177;28;20011;-58
2021/10/09 03:43:54;;;;;;;7.43;4.40;;;18.10;57.50;;;;;;5116338;28;20092;-60
2021/10/09 03:47:13;;;;;;;7.57;4.88;;;18.10;57.40;;;;;;5116029;28;20026;-57
2021/10/09 03:49:22;;;;;;;6.65;3.90;;;18.20;57.40;;;;;;5104906;28;20139;-59
2021/10/09 03:54:32;;;;;;;7.63;4.20;;;18.20;57.40;;;;;;5115982;28;20190;-58
2021/10/09 03:56:57;;;;;;;7.07;4.15;;;18.10;57.50;;;;;;5115884;28;20095;-57
2021/10/09 03:59:23;;;;;;;6.70;4.22;;;18.10;57.50;;;;;;5115786;28;20023;-56
2021/10/09 04:01:48;;;;;;;7.20;4.38;;;18.10;57.40;;;;;;5116024;28;20471;-57
2021/10/09 04:04:14;;;;;;;7.88;4.20;;;18.10;57.40;;;;;;5115596;28;20024;-60
2021/10/09 04:06:39;;;;;;;7.53;4.35;;;18.10;57.40;;;;;;5115909;28;20031;-60
2021/10/09 04:09:05;;;;;;;7.50;4.68;;;18.10;57.40;;;;;;5115671;28;20030;-57
2021/10/09 04:11:30;;;;;;;7.93;4.43;;;18.10;57.40;;;;;;5115499;28;20028;-57
2021/10/09 04:13:56;;;;;;;7.47;4.47;;;18.10;57.50;;;;;;5115578;28;20026;-59
2021/10/09 04:16:21;;;;;;;6.65;3.85;;;18.10;57.50;;;;;;5115580;28;20024;-58
2021/10/09 04:18:47;;;;;;;7.30;4.80;;;18.10;57.50;;;;;;5097247;28;20027;-58
2021/10/09 04:21:12;;;;;;;8.93;5.25;;;18.10;57.40;;;;;;5114601;28;20016;-58
2021/10/09 04:23:38;;;;;;;7.57;4.35;;;18.10;57.40;;;;;;5096973;28;20038;-59
2021/10/09 04:26:04;;;;;;;7.43;4.78;;;18.10;57.40;;;;;;5115429;28;20024;-59
2021/10/09 04:28:29;;;;;;;8.18;5.03;;;18.10;57.30;;;;;;5115265;28;20020;-61
2021/10/09 04:30:55;;;;;;;7.60;4.10;;;18.10;57.40;;;;;;5115145;28;20421;-57
2021/10/09 04:33:20;;;;;;;8.70;4.93;;;18.10;57.30;;;;;;5115028;28;20063;-58
2021/10/09 04:35:47;;;;;;;7.95;4.53;;;18.10;57.20;;;;;;5115700;28;20028;-58
2021/10/09 04:38:13;;;;;;;7.22;4.30;;;18.10;57.30;;;;;;5115356;28;20056;-57
2021/10/09 04:40:38;;;;;;;8.07;4.95;;;18.10;57.30;;;;;;5114869;28;20047;-58
2021/10/09 04:43:05;;;;;;;7.47;4.43;;;18.10;57.30;;;;;;5114895;28;20379;-59
2021/10/09 04:45:30;;;;;;;9.35;4.47;;;18.00;57.30;;;;;;5115177;28;20083;-55
2021/10/09 04:47:57;;;;;;;8.43;4.80;;;18.10;57.30;;;;;;5114802;28;20023;-58
2021/10/09 04:50:22;;;;;;;7.20;4.28;;;18.00;57.30;;;;;;5114917;28;20069;-57
2021/10/09 04:52:48;;;;;;;8.18;4.63;;;18.10;57.40;;;;;;5114858;28;20035;-56
2021/10/09 04:55:13;;;;;;;7.63;4.88;;;18.00;57.40;;;;;;5114692;28;20038;-59
2021/10/09 04:57:39;;;;;;;9.75;4.78;;;18.00;57.30;;;;;;5096454;28;20103;-57
2021/10/09 05:00:06;;;;;;;7.38;4.40;;;18.00;57.30;;;;;;5114624;28;20526;-58
2021/10/09 05:02:31;;;;;;;9.15;4.38;;;18.00;57.40;;;;;;5114487;28;20395;-58
2021/10/09 05:04:57;;;;;;;8.20;5.10;;;18.00;57.40;;;;;;5096136;28;20042;-59
2021/10/09 05:07:22;;;;;;;8.45;5.00;;;18.00;57.40;;;;;;5114419;28;20031;-58
2021/10/09 05:09:50;;;;;;;7.70;4.80;;;18.00;57.30;;;;;;5114415;28;20038;-59
2021/10/09 05:12:15;;;;;;;7.55;4.78;;;18.00;57.30;;;;;;5114291;28;20520;-58
2021/10/09 05:14:41;;;;;;;8.32;4.47;;;18.00;57.30;;;;;;5114543;28;20024;-59
2021/10/09 05:17:06;;;;;;;7.65;4.57;;;18.00;57.30;;;;;;5114180;28;20050;-57
2021/10/09 05:19:32;;;;;;;8.80;4.88;;;18.00;57.20;;;;;;5114264;28;20444;-58
2021/10/09 05:21:57;;;;;;;7.68;4.20;;;18.00;57.30;;;;;;5114200;28;20031;-59
2021/10/09 05:24:23;;;;;;;10.93;5.30;;;18.00;57.30;;;;;;5114148;28;20024;-58
2021/10/09 05:26:48;;;;;;;8.23;5.03;;;18.00;57.30;;;;;;5114147;28;20115;-57
2021/10/09 05:29:16;;;;;;;8.30;4.70;;;18.00;57.30;;;;;;5114300;28;20185;-57
2021/10/09 05:31:41;;;;;;;8.27;5.03;;;18.00;57.30;;;;;;5114172;28;20415;-60
2021/10/09 05:34:08;;;;;;;8.65;4.97;;;18.00;57.40;;;;;;5113818;28;20070;-59
2021/10/09 05:36:34;;;;;;;7.88;4.65;;;18.00;57.30;;;;;;5114048;28;20024;-59
2021/10/09 05:39:00;;;;;;;8.55;4.95;;;18.00;57.30;;;;;;5113776;28;20459;-61
2021/10/09 05:41:25;;;;;;;7.88;4.88;;;18.00;57.30;;;;;;5113935;28;20552;-59
2021/10/09 05:43:51;;;;;;;8.77;5.13;;;18.00;57.40;;;;;;5113847;28;20031;-57
2021/10/09 05:46:18;;;;;;;7.55;5.05;;;18.00;57.30;;;;;;5114165;28;20023;-59
2021/10/09 05:48:44;;;;;;;11.00;5.82;;;18.00;57.30;;;;;;5113930;28;20027;-58
2021/10/09 06:26:17;;;;;;;9.52;5.68;;;17.90;57.30;;;;;;5113331;28;20034;-56
2021/10/09 06:42:25;;;;;;;8.40;5.07;;;18.00;57.20;;;;;;5113238;28;20405;-59
2021/10/09 07:00:59;;;;;;;8.57;4.97;;;18.00;57.10;;;;;;5117315;28;20031;-58
2021/10/09 07:03:25;;;;;;;8.85;5.13;;;18.00;57.10;;;;;;5098604;28;20020;-60
2021/10/09 07:05:51;;;;;;;9.50;5.72;;;18.00;57.10;;;;;;5116703;28;20073;-59
2021/10/09 07:08:17;;;;;;;9.10;5.70;;;18.00;57.10;;;;;;5117082;28;20034;-60
2021/10/09 07:10:47;;;;;;;9.18;5.80;;;18.00;57.10;;;;;;5117053;28;20024;-58
2021/10/09 07:13:14;;;;;;;8.82;6.03;;;18.00;57.00;;;;;;5116752;28;20032;-58
2021/10/09 07:15:40;;;;;;;8.32;5.70;;;18.00;57.00;;;;;;5116763;28;20047;-59
2021/10/09 07:18:11;;;;;;;8.38;5.82;;;18.00;56.80;;;;;;5116657;28;20459;-58
2021/10/09 07:20:38;;;;;;;8.27;5.53;;;18.00;56.90;;;;;;5116587;28;20015;-60
2021/10/09 07:23:05;;;;;;;9.70;5.05;;;18.00;56.80;;;;;;5116825;28;20026;-60
2021/10/09 07:25:31;;;;;;;8.38;5.20;;;18.00;56.80;;;;;;5116844;28;20038;-59
2021/10/09 07:27:57;;;;;;;8.73;5.43;;;18.00;56.60;;;;;;5116440;28;20108;-58
2021/10/09 07:30:22;;;;;;;9.32;5.78;;;18.00;56.60;;;;;;5116383;28;20055;-58
2021/10/09 07:32:48;;;;;;;13.45;6.07;;;18.00;56.70;;;;;;5116444;28;20040;-58
2021/10/09 07:35:14;;;;;;;8.77;5.65;;;18.00;56.60;;;;;;5097993;28;20084;-57
2021/10/09 07:37:40;;;;;;;8.98;5.65;;;18.00;56.60;;;;;;5116230;28;20055;-59
2021/10/09 07:40:07;;;;;;;10.02;5.50;;;18.00;56.60;;;;;;5116095;28;20086;-56
2021/10/09 07:42:32;;;;;;;9.40;5.55;;;18.00;56.50;;;;;;5097850;28;20028;-58
2021/10/09 07:44:58;;;;;;;10.43;5.63;;;18.00;56.50;;;;;;5116042;28;20024;-59
2021/10/09 07:47:23;;;;;;;8.55;5.32;;;18.00;56.60;;;;;;5116322;28;20498;-58
2021/10/09 07:49:49;;;;;;;9.13;5.95;;;18.10;56.50;;;;;;5116163;28;20027;-58
2021/10/09 07:52:15;;;;;;;8.25;5.28;;;18.00;56.60;;;;;;5115995;28;20110;-59
2021/10/09 07:54:41;;;;;;;9.18;5.80;;;18.00;56.40;;;;;;5115998;28;20090;-59
2021/10/09 07:57:06;;;;;;;8.20;5.28;;;18.10;56.40;;;;;;5114751;28;20420;-59
2021/10/09 07:59:33;;;;;;;10.63;6.43;;;18.00;56.50;;;;;;5116039;28;20027;-56
2021/10/09 08:01:59;;;;;;;10.10;5.82;;;18.10;56.40;;;;;;5115687;28;20023;-57
2021/10/09 08:04:24;;;;;;;10.73;6.50;;;18.00;56.40;;;;;;5115650;28;20027;-58
2021/10/09 08:06:50;;;;;;;9.77;6.32;;;18.00;56.50;;;;;;5097306;28;20023;-57
2021/10/09 08:09:16;;;;;;;8.80;5.78;;;18.00;56.40;;;;;;5115644;28;20020;-57
2021/10/09 08:11:41;;;;;;;10.43;6.40;;;18.10;56.50;;;;;;5115463;28;20020;-58
2021/10/09 08:14:07;;;;;;;11.73;6.05;;;18.00;56.50;;;;;;5115777;28;20024;-58
2021/10/09 08:16:33;;;;;;;8.63;5.53;;;18.10;56.50;;;;;;5115404;28;20493;-59
2021/10/09 08:19:00;;;;;;;9.13;5.55;;;18.10;56.50;;;;;;5115658;28;20030;-60
2021/10/09 08:21:28;;;;;;;9.93;6.05;;;18.10;56.40;;;;;;5115438;28;20019;-58
2021/10/09 08:39:42;;;;;;;10.73;5.85;;;18.10;56.40;;;;;;5115128;28;20047;-56
2021/10/09 08:42:09;;;;;;;9.48;6.03;;;18.10;56.50;;;;;;5115298;28;20080;-56
2021/10/09 08:44:34;;;;;;;9.00;5.47;;;18.00;56.50;;;;;;5115008;28;20100;-56
2021/10/09 08:47:00;;;;;;;9.20;5.70;;;18.10;56.40;;;;;;5114844;28;20478;-57
2021/10/09 08:49:26;;;;;;;9.15;5.72;;;18.10;56.30;;;;;;5079373;28;20023;-55
2021/10/09 08:51:52;;;;;;;9.60;6.25;;;18.10;56.30;;;;;;5115101;28;20073;-57
2021/10/09 08:54:18;;;;;;;9.10;5.75;;;18.10;56.40;;;;;;5096546;28;20027;-58
2021/10/09 08:56:48;;;;;;;10.70;5.63;;;18.10;56.40;;;;;;5114762;28;20020;-59
2021/10/09 08:59:21;;;;;;;12.07;6.47;;;18.10;56.30;;;;;;5114563;28;20027;-59
2021/10/09 09:02:29;;;;;;;8.73;6.22;;;18.10;56.30;;;;;;5114547;28;20023;-58
2021/10/09 09:05:25;;;;;;;7.97;5.20;;;18.10;56.30;;;;;;5114667;28;20111;-60
2021/10/09 09:30:32;;;;;;;10.80;6.43;;;18.20;56.10;;;;;;5114754;28;20035;-58
2021/10/09 09:31:04;;;;;;;9.15;5.40;;;18.20;56.10;;;;;;5113508;28;20478;-61
2021/10/09 09:39:05;;;;;;;8.77;6.15;;;18.20;56.10;;;;;;5114003;28;20024;-58
2021/10/09 09:41:42;;;;;;;11.60;6.18;;;18.20;56.00;;;;;;5114119;28;20031;-58
2021/10/09 09:44:11;;;;;;;9.40;5.63;;;18.10;56.00;;;;;;5113829;28;20019;-59
2021/10/09 09:46:37;;;;;;;9.10;5.47;;;18.20;56.00;;;;;;5113997;28;20034;-55
2021/10/09 09:49:03;;;;;;;8.82;6.10;;;18.30;55.90;;;;;;5113652;28;20462;-56
2021/10/09 09:51:28;;;;;;;9.30;5.53;;;18.30;55.90;;;;;;5113644;28;20028;-58
2021/10/09 09:53:56;;;;;;;8.68;5.47;;;18.30;55.80;;;;;;5113537;28;20038;-58
2021/10/09 09:56:23;;;;;;;10.27;6.07;;;18.30;55.90;;;;;;5113390;28;20024;-58
2021/10/09 09:58:58;;;;;;;7.80;5.20;;;18.30;56.00;;;;;;5113300;28;20062;-58
2021/10/09 10:01:25;;;;;;;8.85;5.70;;;18.30;55.90;;;;;;5113560;28;20085;-58
2021/10/09 10:03:54;;;;;;;9.35;5.53;;;18.30;55.90;;;;;;5113559;28;20028;-58
2021/10/09 10:06:19;;;;;;;8.70;5.60;;;18.40;55.80;;;;;;5113411;28;20027;-57
2021/10/09 10:08:45;;;;;;;9.52;5.40;;;18.40;55.80;;;;;;5113323;28;20475;-58
2021/10/09 10:11:17;;;;;;;8.73;5.30;;;18.40;55.80;;;;;;5113457;28;20024;-58
2021/10/09 10:13:43;;;;;;;8.77;5.65;;;18.40;55.70;;;;;;5113390;28;20059;-60
2021/10/09 10:16:12;;;;;;;8.00;5.07;;;18.50;55.70;;;;;;5113342;28;20103;-58
2021/10/09 10:18:44;;;;;;;10.13;5.50;;;18.50;55.70;;;;;;5113049;28;20027;-56
2021/10/09 10:21:14;;;;;;;11.18;5.60;;;18.50;55.70;;;;;;5112564;28;20023;-59
2021/10/09 10:23:43;;;;;;;8.93;5.05;;;18.60;55.60;;;;;;5113209;28;20140;-58
2021/10/09 10:26:21;;;;;;;8.93;4.95;;;18.60;55.70;;;;;;5113166;28;20015;-57
2021/10/09 10:28:52;;;;;;;8.77;5.28;;;18.60;55.60;;;;;;5113236;28;20031;-59
2021/10/09 10:31:18;;;;;;;8.10;4.93;;;18.70;55.60;;;;;;5113158;28;20016;-57
2021/10/09 10:33:48;;;;;;;9.35;5.65;;;18.70;55.50;;;;;;5113224;28;20118;-59
2021/10/09 10:36:34;;;;;;;8.32;5.13;;;18.70;55.50;;;;;;5113253;28;20028;-57
2021/10/09 10:39:00;;;;;;;9.05;5.10;;;18.70;55.40;;;;;;5112723;28;20035;-56
2021/10/09 10:41:48;;;;;;;8.88;5.13;;;18.80;55.20;;;;;;5094874;28;20023;-57
2021/10/09 10:50:53;;;;;;;9.20;5.20;;;18.90;55.10;;;;;;5113255;28;20039;-58
2021/10/09 10:53:38;;;;;;;8.43;5.18;;;19.00;54.90;;;;;;5112795;28;20077;-59
2021/10/09 10:56:07;;;;;;;;;;;19.00;55.00;;;;;;5113408;28;20019;-58
2021/10/09 10:58:33;;;;;;;8.90;5.20;;;19.00;54.90;;;;;;5112930;28;20311;-59
2021/10/09 11:01:21;;;;;;;9.35;5.13;;;19.10;54.70;;;;;;5112979;28;20103;-59
2021/10/09 11:03:51;;;;;;;7.47;4.78;;;19.10;54.80;;;;;;5112869;28;20028;-57
2021/10/09 11:06:18;;;;;;;9.68;5.40;;;19.20;54.70;;;;;;5112730;28;20497;-57
2021/10/09 11:08:44;;;;;;;8.43;5.03;;;19.20;54.60;;;;;;5112842;28;20097;-59
2021/10/09 11:11:11;;;;;;;8.40;4.63;;;19.30;54.50;;;;;;5112784;28;20356;-60
2021/10/09 11:13:38;;;;;;;7.72;4.72;;;19.30;54.50;;;;;;5112397;28;20368;-59
2021/10/09 11:16:04;;;;;;;7.43;4.53;;;19.30;54.40;;;;;;5112970;28;20107;-59
2021/10/09 11:18:29;;;;;;;8.52;4.82;;;19.40;54.30;;;;;;5112647;28;20107;-59
2021/10/09 11:21:02;;;;;;;9.45;4.82;;;19.40;54.30;;;;;;5112718;28;20044;-59
2021/10/09 11:23:27;;;;;;;7.55;4.38;;;19.50;54.20;;;;;;5112636;28;20428;-57
2021/10/09 11:25:54;;;;;;;7.63;4.63;;;19.50;54.10;;;;;;5112564;28;20016;-59
2021/10/09 11:28:22;;;;;;;6.25;3.97;;;19.60;54.10;;;;;;5112808;28;20052;-59
2021/10/09 11:30:48;;;;;;;8.57;4.97;;;19.60;54.10;;;;;;5113592;28;20047;-59
2021/10/09 11:33:14;;;;;;;8.45;5.43;;;19.70;53.90;;;;;;5116358;28;20466;-59
2021/10/09 11:35:41;;;;;;;7.00;4.25;;;19.70;53.90;;;;;;5116201;28;20471;-59
2021/10/09 11:38:26;;;;;;;7.60;4.68;;;19.80;53.80;;;;;;5116054;28;20027;-59
2021/10/09 11:40:55;;;;;;;7.78;4.85;;;19.90;53.60;;;;;;5115864;28;20122;-58
2021/10/09 11:55:17;;;;;;;7.32;4.30;;;20.10;53.30;;;;;;5013258;28;20123;-60
2021/10/09 11:57:42;;;;;;;7.90;4.53;;;20.10;53.20;;;;;;5103348;28;20161;-59
2021/10/09 12:00:28;;;;;;;8.38;4.78;;;20.10;53.20;;;;;;5115659;28;20440;-59
2021/10/09 12:02:58;;;;;;;8.30;4.53;;;20.10;53.20;;;;;;5098272;28;20027;-57
2021/10/09 12:05:34;;;;;;;8.57;4.50;;;20.10;53.30;;;;;;5115401;28;20023;-59
2021/10/09 12:08:15;;;;;;;8.25;4.57;;;20.10;53.30;;;;;;5115662;28;20020;-60
2021/10/09 12:10:41;;;;;;;7.45;4.28;;;20.10;53.30;;;;;;5115471;28;20090;-60
2021/10/09 12:13:07;;;;;;;7.53;4.43;;;20.00;53.40;;;;;;5115287;28;20401;-57
2021/10/09 12:15:33;;;;;;;7.53;4.45;;;20.10;53.40;;;;;;5115331;28;20041;-59
2021/10/09 12:18:02;;;;;;;8.65;4.85;;;20.00;53.50;;;;;;5115368;28;20031;-60
2021/10/09 12:20:27;;;;;;;7.53;4.88;;;20.00;53.50;;;;;;5115227;28;20485;-59
2021/10/09 12:22:55;;;;;;;7.40;4.45;;;20.00;53.60;;;;;;5097198;28;20110;-59
2021/10/09 12:25:26;;;;;;;8.82;4.45;;;20.00;53.60;;;;;;5115270;28;20394;-59
2021/10/09 12:28:01;;;;;;;7.72;4.85;;;20.00;53.70;;;;;;5115230;28;20470;-59
2021/10/09 12:30:44;;;;;;;8.07;4.38;;;19.90;53.70;;;;;;5115128;28;20043;-59
2021/10/09 12:33:10;;;;;;;8.07;4.65;;;19.90;53.90;;;;;;5115238;28;20036;-60
2021/10/09 12:35:36;;;;;;;7.10;4.28;;;19.80;54.00;;;;;;5115033;28;20065;-57
2021/10/09 12:38:08;;;;;;;7.45;4.43;;;19.80;54.10;;;;;;5115058;28;20030;-58
2021/10/09 12:40:44;;;;;;;8.45;4.72;;;19.80;54.10;;;;;;5114818;28;20100;-59
2021/10/09 12:43:13;;;;;;;7.43;4.47;;;19.70;54.30;;;;;;5113933;28;20081;-60
2021/10/09 12:45:40;;;;;;;8.80;4.85;;;19.70;54.20;;;;;;5115028;28;20073;-57
2021/10/09 12:48:06;;;;;;;7.75;4.30;;;19.70;54.20;;;;;;5114931;28;20431;-60
2021/10/09 12:50:34;;;;;;;6.85;4.07;;;19.70;54.20;;;;;;5114864;28;20053;-59
2021/10/09 12:53:00;;;;;;;7.65;4.30;;;19.70;54.30;;;;;;5114736;28;20555;-59
2021/10/09 12:55:28;;;;;;;7.72;4.65;;;19.70;54.40;;;;;;5114896;28;20020;-59
2021/10/09 12:57:58;;;;;;;7.10;4.38;;;19.70;54.30;;;;;;5114660;28;20031;-59
2021/10/09 13:00:26;;;;;;;7.80;4.38;;;19.70;54.40;;;;;;5114222;28;20030;-60
2021/10/09 13:02:52;;;;;;;8.55;5.05;;;19.70;54.40;;;;;;5114321;28;20076;-57
2021/10/09 13:05:19;;;;;;;7.50;4.95;;;19.70;54.40;;;;;;5114162;28;20560;-58
2021/10/09 13:07:45;;;;;;;7.90;4.78;;;19.60;54.40;;;;;;5114424;28;20036;-59
2021/10/09 13:10:11;;;;;;;9.60;4.97;;;19.60;54.50;;;;;;5096125;28;20023;-59
2021/10/09 13:12:37;;;;;;;7.97;4.50;;;19.60;54.50;;;;;;5095916;28;20110;-59
2021/10/09 13:15:03;;;;;;;9.18;5.30;;;19.60;54.60;;;;;;5114208;28;20114;-59
2021/10/09 13:17:29;;;;;;;8.50;4.55;;;19.60;54.50;;;;;;5114162;28;20020;-59
2021/10/09 13:19:54;;;;;;;10.40;5.45;;;19.50;54.60;;;;;;5114268;28;20024;-57
2021/10/09 13:22:20;;;;;;;8.77;4.90;;;19.60;54.40;;;;;;5114118;28;20020;-57
2021/10/09 13:24:46;;;;;;;7.20;4.32;;;19.60;54.50;;;;;;5114301;28;20106;-57
2021/10/09 13:27:11;;;;;;;6.97;4.38;;;19.60;54.50;;;;;;5113950;28;20030;-59
2021/10/09 13:29:37;;;;;;;8.55;4.82;;;19.60;54.60;;;;;;5113831;28;20102;-59
2021/10/09 13:32:02;;;;;;;7.57;4.32;;;19.50;54.50;;;;;;5113932;28;20024;-59
2021/10/09 13:34:28;;;;;;;8.02;4.45;;;19.50;54.50;;;;;;5113865;28;20023;-59
2021/10/09 13:36:54;;;;;;;7.80;4.82;;;19.50;54.60;;;;;;5113895;28;20016;-59
2021/10/09 13:39:19;;;;;;;8.25;4.75;;;19.50;54.60;;;;;;5095244;28;20052;-59
2021/10/09 13:41:45;;;;;;;7.47;4.05;;;19.50;54.60;;;;;;5113955;28;20062;-57
2021/10/09 13:44:11;;;;;;;14.75;5.40;;;19.50;54.70;;;;;;5113561;28;20399;-59
2021/10/09 13:46:37;;;;;;;9.18;5.20;;;19.50;54.60;;;;;;5113765;28;20023;-57
2021/10/09 13:49:07;;;;;;;8.50;4.68;;;19.50;54.60;;;;;;5113917;28;20024;-59
2021/10/09 13:51:33;;;;;;;9.75;5.20;;;19.50;54.60;;;;;;5113675;28;20030;-60
2021/10/09 13:53:59;;;;;;;8.55;4.38;;;19.50;54.50;;;;;;5113456;28;20036;-58
2021/10/09 13:56:25;;;;;;;8.70;4.53;;;19.50;54.50;;;;;;5113564;28;20024;-56
2021/10/09 13:58:51;;;;;;;9.20;4.60;;;19.50;54.60;;;;;;5113516;28;20030;-58
2021/10/09 14:01:16;;;;;;;9.75;5.32;;;19.50;54.70;;;;;;5113426;28;20047;-57
2021/10/09 14:03:44;;;;;;;9.88;4.75;;;19.50;54.70;;;;;;5113582;28;20023;-57
2021/10/09 14:06:09;;;;;;;7.72;3.92;;;19.50;54.60;;;;;;5113543;28;20378;-57
2021/10/09 14:08:35;;;;;;;7.90;4.68;;;19.50;54.70;;;;;;5113433;28;20117;-56
2021/10/09 14:11:00;;;;;;;9.85;4.95;;;19.40;54.60;;;;;;5113380;28;20056;-59
2021/10/09 14:13:27;;;;;;;8.80;4.75;;;19.50;54.60;;;;;;5113254;28;20092;-60
2021/10/09 14:15:53;;;;;;;7.68;4.53;;;19.40;54.60;;;;;;5095075;28;20385;-60
2021/10/09 14:18:19;;;;;;;8.55;4.40;;;19.40;54.60;;;;;;5113274;28;20107;-59
2021/10/09 14:20:52;;;;;;;9.23;4.57;;;19.40;54.60;;;;;;5094983;28;20023;-59
2021/10/09 14:23:18;;;;;;;8.20;5.10;;;19.40;54.60;;;;;;5113198;28;20084;-59
2021/10/09 14:25:45;;;;;;;7.75;4.63;;;19.40;54.60;;;;;;5113201;28;20027;-59
2021/10/09 14:28:11;;;;;;;7.90;4.60;;;19.40;54.60;;;;;;5113046;28;20174;-59
2021/10/09 14:30:38;;;;;;;7.30;4.50;;;19.40;54.60;;;;;;5113155;28;20034;-57
2021/10/09 14:33:04;;;;;;;11.60;4.65;;;19.40;54.60;;;;;;5112897;28;20043;-59
2021/10/09 14:35:30;;;;;;;7.65;4.38;;;19.40;54.60;;;;;;5112899;28;20020;-59
2021/10/09 14:37:56;;;;;;;7.43;4.63;;;19.40;54.70;;;;;;5112933;28;20080;-57
2021/10/09 14:40:21;;;;;;;8.27;4.28;;;19.40;54.60;;;;;;5112345;28;20499;-59
2021/10/09 14:42:48;;;;;;;10.43;5.15;;;19.30;54.70;;;;;;5094555;28;20034;-59
2021/10/09 14:45:15;;;;;;;7.68;4.45;;;19.30;54.60;;;;;;5113088;28;20119;-58
2021/10/09 14:55:48;;;;;;;7.75;4.30;;;19.30;54.70;;;;;;5113198;28;20122;-59
2021/10/09 15:20:07;;;;;;;8.07;4.32;;;19.30;54.80;;;;;;5116826;28;20042;-59
2021/10/09 15:22:33;;;;;;;8.07;4.30;;;19.30;54.80;;;;;;5098000;28;20035;-60
2021/10/09 15:25:00;;;;;;;7.18;4.68;;;19.20;54.90;;;;;;5116678;28;20360;-59
2021/10/09 15:27:28;;;;;;;9.35;4.70;;;19.20;54.90;;;;;;5116536;28;20538;-58
2021/10/09 15:29:57;;;;;;;7.43;4.32;;;19.20;54.90;;;;;;5116250;28;20469;-59
2021/10/09 15:32:23;;;;;;;7.60;4.35;;;19.20;54.90;;;;;;5098421;28;20027;-58